createdAt,value
2022-09-02T00:05:22.551Z,99.90
2022-09-02T00:12:06.719Z,99.90
2022-09-02T00:18:50.027Z,99.90
2022-09-02T00:25:32.686Z,99.90
2022-09-02T00:32:15.114Z,99.90
2022-09-02T00:38:57.586Z,99.90
2022-09-02T00:45:40.014Z,99.90
2022-09-02T00:52:29.412Z,99.90
2022-09-02T00:59:20.213Z,99.90
2022-09-02T01:06:03.314Z,99.90
2022-09-02T01:12:45.800Z,99.90
2022-09-02T01:19:42.742Z,99.90
2022-09-02T01:26:25.094Z,99.90
2022-09-02T01:33:08.228Z,99.90
2022-09-02T01:39:52.342Z,99.90
2022-09-02T01:46:36.510Z,99.90
2022-09-02T01:53:19.398Z,99.90
2022-09-02T02:00:04.728Z,99.90
2022-09-02T02:06:55.337Z,99.90
2022-09-02T02:13:38.451Z,99.90
2022-09-02T02:20:21.859Z,99.90
2022-09-02T02:27:05.048Z,99.90
2022-09-02T02:33:47.598Z,99.90
2022-09-02T02:40:30.211Z,99.90
2022-09-02T02:47:12.750Z,99.90
2022-09-02T02:53:58.906Z,99.90
2022-09-02T03:00:43.280Z,99.90
2022-09-02T03:07:25.764Z,99.90
2022-09-02T03:14:08.474Z,99.90
2022-09-02T03:20:51.592Z,99.90
2022-09-02T03:27:34.543Z,99.90
2022-09-02T03:34:18.095Z,99.90
2022-09-02T03:41:00.558Z,99.90
2022-09-02T03:47:47.181Z,99.90
2022-09-02T03:54:29.660Z,99.90
2022-09-02T04:01:17.927Z,99.90
2022-09-02T04:08:01.106Z,99.90
2022-09-02T04:14:44.439Z,99.90
2022-09-02T04:21:27.097Z,99.90
2022-09-02T04:28:10.105Z,99.90
2022-09-02T04:34:52.566Z,99.90
2022-09-02T04:41:36.790Z,99.90
2022-09-02T04:48:23.864Z,99.90
2022-09-02T04:55:07.084Z,99.90
2022-09-02T05:01:50.420Z,99.90
2022-09-02T05:08:37.046Z,99.90
2022-09-02T05:15:21.017Z,99.90
2022-09-02T05:22:05.142Z,99.90
2022-09-02T05:28:52.101Z,99.90
2022-09-02T05:35:39.107Z,99.90
2022-09-02T05:42:26.740Z,99.90
2022-09-02T05:49:09.321Z,99.90
2022-09-02T05:55:59.231Z,99.90
2022-09-02T06:02:42.890Z,99.90
2022-09-02T06:09:44.698Z,99.90
2022-09-02T06:16:27.624Z,95.50
2022-09-02T06:23:10.330Z,92.10
2022-09-02T06:29:56.283Z,89.70
2022-09-02T06:36:43.279Z,85.80
2022-09-02T06:43:28.185Z,83.80
2022-09-02T06:50:31.267Z,82.80
2022-09-02T06:57:14.468Z,80.10
2022-09-02T07:04:16.353Z,77.40
2022-09-02T07:10:59.154Z,76.40
2022-09-02T07:17:41.966Z,74.00
2022-09-02T07:24:28.497Z,75.10
2022-09-02T07:31:14.267Z,75.00
2022-09-02T07:37:57.079Z,74.80
2022-09-02T07:44:39.605Z,74.90
2022-09-02T07:51:23.334Z,74.30
2022-09-02T07:58:10.903Z,75.10
2022-09-02T08:04:56.280Z,72.80
2022-09-02T08:11:40.763Z,73.30
2022-09-02T08:18:23.554Z,72.40
2022-09-02T08:25:06.449Z,72.20
2022-09-02T08:31:50.847Z,70.50
2022-09-02T08:38:36.763Z,71.00
2022-09-02T08:45:32.771Z,70.50
2022-09-02T08:52:42.202Z,69.00
2022-09-02T08:59:27.201Z,67.80
2022-09-02T09:06:30.666Z,68.10
2022-09-02T09:13:40.746Z,68.80
2022-09-02T09:20:44.079Z,66.50
2022-09-02T09:27:27.124Z,64.00
2022-09-02T09:34:12.663Z,64.50
2022-09-02T09:41:12.109Z,64.10
2022-09-02T09:48:16.656Z,63.90
2022-09-02T09:55:22.818Z,63.80
2022-09-02T10:02:20.979Z,63.10
2022-09-02T10:09:18.367Z,63.00
2022-09-02T10:16:28.631Z,62.60
2022-09-02T10:23:25.753Z,62.80
2022-09-02T10:30:21.610Z,62.60
2022-09-02T10:37:19.991Z,62.20
2022-09-02T10:44:36.689Z,62.70
2022-09-02T10:51:43.775Z,62.20
2022-09-02T10:59:07.907Z,63.40
2022-09-02T11:06:07.507Z,64.10
2022-09-02T11:13:03.288Z,65.20
2022-09-02T11:20:01.379Z,65.50
2022-09-02T11:26:53.753Z,66.00
2022-09-02T11:41:36.061Z,65.90
2022-09-02T11:48:47.902Z,66.70
2022-09-02T11:55:39.202Z,67.00
2022-09-02T12:02:45.748Z,67.30
2022-09-02T12:09:49.434Z,66.40
2022-09-02T12:17:03.515Z,66.60
2022-09-02T12:23:49.225Z,66.50
2022-09-02T12:31:00.904Z,66.30
2022-09-02T12:37:55.092Z,67.00
2022-09-02T12:45:04.629Z,66.70
2022-09-02T12:52:01.439Z,66.40
2022-09-02T12:58:53.303Z,66.70
2022-09-02T13:05:56.480Z,67.60
2022-09-02T13:13:17.089Z,67.70
2022-09-02T13:20:43.519Z,67.30
2022-09-02T13:27:58.074Z,67.80
2022-09-02T13:34:45.387Z,68.20
2022-09-02T13:41:32.738Z,69.60
2022-09-02T13:48:22.647Z,67.90
2022-09-02T13:55:06.063Z,67.70
2022-09-02T14:01:48.657Z,68.10
2022-09-02T14:08:31.850Z,67.70
2022-09-02T14:15:17.543Z,67.70
2022-09-02T14:21:59.895Z,68.00
2022-09-02T14:28:42.287Z,67.60
2022-09-02T14:35:24.749Z,67.90
2022-09-02T14:42:07.155Z,68.40
2022-09-02T14:49:11.270Z,68.40
2022-09-02T14:55:56.856Z,68.60
2022-09-02T15:02:42.517Z,68.70
2022-09-02T15:09:24.986Z,69.30
2022-09-02T15:16:07.374Z,69.00
2022-09-02T15:22:52.280Z,68.70
2022-09-02T15:29:35.071Z,68.80
2022-09-02T15:36:18.417Z,69.00
2022-09-02T15:43:00.769Z,68.70
2022-09-02T15:49:43.170Z,69.00
2022-09-02T15:56:27.640Z,68.40
2022-09-02T16:03:10.063Z,68.90
2022-09-02T16:09:52.442Z,69.30
2022-09-02T16:16:35.902Z,69.20
2022-09-02T16:23:18.286Z,69.70
2022-09-02T16:30:00.629Z,69.80
2022-09-02T16:36:46.083Z,69.90
2022-09-02T16:43:31.621Z,69.90
2022-09-02T16:50:14.029Z,70.20
2022-09-02T16:56:56.351Z,70.50
2022-09-02T17:03:39.660Z,70.90
2022-09-02T17:10:22.013Z,70.60
2022-09-02T17:17:04.486Z,70.70
2022-09-02T17:23:47.870Z,71.20
2022-09-02T17:30:30.868Z,71.20
2022-09-02T17:37:13.329Z,71.90
2022-09-02T17:43:55.733Z,72.30
2022-09-02T17:50:38.516Z,73.10
2022-09-02T17:57:43.054Z,74.20
2022-09-02T18:04:43.222Z,76.50
2022-09-02T18:11:25.585Z,77.30
2022-09-02T18:18:11.850Z,78.80
2022-09-02T18:25:36.343Z,78.50
2022-09-02T18:32:40.719Z,79.10
2022-09-02T18:40:03.300Z,79.70
2022-09-02T18:47:01.823Z,80.00
2022-09-02T18:53:48.441Z,79.10
2022-09-02T19:00:36.724Z,81.40
2022-09-02T19:07:38.948Z,82.20
2022-09-02T19:14:29.130Z,81.90
2022-09-02T19:21:17.588Z,81.00
2022-09-02T19:28:02.539Z,80.60
2022-09-02T19:34:45.752Z,80.30
2022-09-02T19:41:28.280Z,80.20
2022-09-02T19:48:11.312Z,80.30
2022-09-02T19:54:54.351Z,80.70
2022-09-02T20:01:37.897Z,81.20
2022-09-02T20:08:22.383Z,81.60
2022-09-02T20:15:06.670Z,85.40
2022-09-02T20:21:49.358Z,83.80
2022-09-02T20:28:45.134Z,86.50
2022-09-02T20:36:00.282Z,87.30
2022-09-02T20:43:08.338Z,89.00
2022-09-02T20:50:05.145Z,90.10
2022-09-02T20:57:15.161Z,91.60
2022-09-02T21:04:24.202Z,91.60
2022-09-02T21:11:13.944Z,91.80
2022-09-02T21:18:21.261Z,92.80
2022-09-02T21:25:09.794Z,93.60
2022-09-02T21:32:15.435Z,93.50
2022-09-02T21:39:07.060Z,90.50
2022-09-02T21:46:10.769Z,90.20
2022-09-02T21:53:23.352Z,90.20
2022-09-02T22:00:16.793Z,89.90
2022-09-02T22:07:18.992Z,91.00
2022-09-02T22:14:18.791Z,91.40
2022-09-02T22:28:47.123Z,91.80
2022-09-02T22:35:34.137Z,93.00
2022-09-02T22:42:27.031Z,94.00
2022-09-02T22:49:49.215Z,92.70
2022-09-02T22:57:28.749Z,92.80
2022-09-02T23:04:38.713Z,96.10
2022-09-02T23:11:30.607Z,97.60
2022-09-02T23:18:24.370Z,98.40
2022-09-02T23:25:40.852Z,99.20
2022-09-02T23:32:44.134Z,98.30
2022-09-02T23:39:29.592Z,97.40
2022-09-02T23:46:46.178Z,98.60
2022-09-02T23:53:40.273Z,98.70
